• Join FlightAware (Why Join?)
  • Login
  • US Flag 
03:14AM EDT


 

Airport Tracker/Info


-or-


 

Live Flight TrackerFlight Track Log ✈ N662US ✈ 05-Jun-2013 ✈ RJAA / NRT - KSEA

Flight Track Log - Related Links

Times and Time Zones

All times are in EDT time to prevent confusion due to time zone crossing. See the N662US flight status page for this flight to view local times or setup timezone preferences in your user account.

Time Position Orientation Groundspeed Altitude Reporting Facility
EDT Latitude Longitude Course Direction KTS MPH feet Rate Location/Type
02:36AM 35.7160 140.4100 149° Southeast 172 198 1,500  Level FlightAware
02:37AM 35.6970 140.4240 149° Southeast 176 203 2,200 1,680 Climbing FlightAware
02:37AM 35.6730 140.4410 150° Southeast 180 207 3,200 1,380 Climbing FlightAware
02:38AM 35.6510 140.4580 148° Southeast 209 241 3,600 960 Climbing FlightAware
02:38AM 35.6320 140.4710 151° Southeast 237 273 4,000 1,140 Climbing FlightAware
02:39AM 35.5990 140.4950 149° Southeast 265 305 4,600 1,740 Climbing FlightAware
02:39AM 35.5660 140.5180 150° Southeast 281 323 5,800 2,280 Climbing FlightAware
02:40AM 35.5410 140.5470 137° Southeast 290 334 6,700 1,320 Climbing FlightAware
02:40AM 35.5320 140.5850 106° East 297 342 6,900 240 Climbing FlightAware
02:40AM 35.5290 140.6220 96° East 296 341 6,900  Level FlightAware
02:41AM 35.5260 140.6740 94° East 297 342 6,900  Level FlightAware
02:41AM 35.5220 140.7210 96° East 296 341 6,900 180 Level FlightAware
02:42AM 35.5190 140.7670 95° East 297 342 7,100 1,800 Climbing FlightAware
02:42AM 35.5140 140.8220 96° East 306 352 8,600 2,700 Climbing FlightAware
02:43AM 35.5090 140.8910 95° East 320 368 10,300 1,740 Climbing FlightAware
02:44AM 35.5040 140.9540 96° East 354 407 10,900 1,320 Climbing FlightAware
02:45AM 35.4920 141.0870 96° East 410 472 12,400 2,040 Climbing FlightAware
02:45AM 35.4570 141.2140 109° East 427 491 14,700 2,400 Climbing FlightAware
02:46AM 35.4260 141.3130 111° Southeast 436 502 16,400 2,220 Climbing FlightAware
02:47AM 35.4000 141.4000 110° East 447 514 17,700 2,100 Climbing FlightAware
02:48AM 35.3670 141.5060 111° Southeast 461 531 19,200 1,740 Climbing FlightAware
02:48AM 35.3370 141.6050 110° East 473 544 20,300 1,200 Climbing FlightAware
02:49AM 35.2990 141.7330 110° East 479 551 21,100 1,680 Climbing FlightAware
02:50AM 35.2510 141.8810 112° Southeast 498 573 23,400 1,980 Climbing FlightAware
02:51AM 35.2060 142.0250 111° Southeast 511 588 24,600 1,320 Climbing FlightAware
02:52AM 35.1760 142.1250 110° East 525 604 25,400 840 Climbing FlightAware
02:52AM 35.1610 142.2460 99° East 528 608 25,800 1,320 Climbing FlightAware
02:53AM 35.1730 142.3730 83° East 535 616 27,200 1,140 Climbing FlightAware
02:54AM 35.1790 142.4850 86° East 535 616 27,400 540 Climbing FlightAware
02:54AM 35.1870 142.6320 86° East 543 625 28,000 420 Climbing FlightAware
02:55AM 35.1940 142.7460 86° East 543 625 28,000  Level FlightAware
02:56AM 35.2010 142.8720 86° East 543 625 28,000  Level FlightAware
02:56AM 35.2060 142.9650 86° East 543 625 28,000  Level FlightAware
02:57AM 35.2130 143.0910 86° East 543 625 28,000  Level FlightAware
02:58AM 35.2190 143.1870 86° East 543 625 28,000  Level FlightAware
04:59AM 36.1000 165.0000 90° East 561 646 29,000  Climbing Oakland Oceanic (ODAPS)
05:03AM 36.1000 165.8167 90° East 558 642 29,000  Level Oakland Oceanic (ODAPS)
05:25AM 36.0000 170.0000 73° East 592 681 29,000  Level Oakland Oceanic (ODAPS)
05:30AM 36.2000 170.8000 73° East 593 682 29,000  Level Oakland Oceanic (ODAPS)
05:56AM 37.2833 175.8000 77° East 596 686 30,000  Climbing Oakland Oceanic (ODAPS)
06:18AM 38.0000 -180.0000 80° East 613 705 30,000  Level Oakland Oceanic (ODAPS)
06:23AM 38.1500 -178.8667 80° East 594 684 31,000  Climbing Oakland Oceanic (ODAPS)
07:01AM 38.9333 -171.0500 85° East 622 716 31,000  Level Oakland Oceanic (ODAPS)
07:03AM 38.9500 -170.9333 86° East 613 705 31,000  Level Oakland Oceanic (ODAPS)
07:05AM 39.0000 -170.0000 65° Northeast 606 697 31,000 360 Level Oakland Oceanic (ODAPS)
07:16AM 39.7833 -167.7500 67° East 599 689 36,000 120 Climbing Oakland Oceanic (ODAPS)
07:43AM 41.4167 -162.2500 70° East 597 687 36,000  Level Oakland Oceanic (ODAPS)
07:54AM 42.0000 -160.0000 64° Northeast 584 672 36,000  Level Oakland Oceanic (ODAPS)
08:10AM 43.1000 -156.7833 66° East 579 666 37,000  Climbing Oakland Oceanic (ODAPS)
08:36AM 44.6833 -151.2667 70° East 569 655 37,000  Level Oakland Oceanic (ODAPS)
08:43AM 45.0000 -150.0000 70° East 561 646 37,000  Level Oakland Oceanic (ODAPS)
09:03AM 46.0167 -145.5833 74° East 564 649 37,000  Level Oakland Oceanic (ODAPS)
09:09AM 46.2676 -144.3131 75° East 564 649 37,000  Level FlightAware Transoceanic
09:10AM 46.3080 -144.1003 75° East 564 649 37,000  Level FlightAware Transoceanic
09:11AM 46.3480 -143.8872 75° East 564 649 37,000  Level FlightAware Transoceanic
09:12AM 46.3877 -143.6738 75° East 564 649 37,000  Level FlightAware Transoceanic
09:13AM 46.4269 -143.4600 75° East 564 649 37,000  Level FlightAware Transoceanic
09:14AM 46.4658 -143.2460 75° East 564 649 37,000  Level FlightAware Transoceanic
09:15AM 46.5042 -143.0316 75° East 564 649 37,000  Level FlightAware Transoceanic
09:16AM 46.5423 -142.8169 76° East 564 649 37,000  Level FlightAware Transoceanic
09:17AM 46.5799 -142.6020 76° East 564 649 37,000  Level FlightAware Transoceanic
09:18AM 46.6172 -142.3867 76° East 564 649 37,000  Level FlightAware Transoceanic
09:19AM 46.6540 -142.1712 76° East 564 649 37,000  Level FlightAware Transoceanic
09:20AM 46.6905 -141.9553 76° East 564 649 37,000  Level FlightAware Transoceanic
09:21AM 46.7265 -141.7392 76° East 564 649 37,000  Level FlightAware Transoceanic
09:22AM 46.7621 -141.5228 77° East 564 649 37,000  Level FlightAware Transoceanic
09:23AM 46.7974 -141.3061 77° East 564 649 37,000  Level FlightAware Transoceanic
09:24AM 46.8321 -141.0891 77° East 564 649 37,000  Level FlightAware Transoceanic
09:25AM 46.8666 -140.8718 77° East 564 649 37,000  Level FlightAware Transoceanic
09:26AM 46.9005 -140.6543 77° East 564 649 37,000  Level FlightAware Transoceanic
09:27AM 46.9341 -140.4364 77° East 564 649 37,000  Level FlightAware Transoceanic
09:28AM 46.9673 -140.2184 78° East 564 649 37,000  Level FlightAware Transoceanic
09:28AM 47.0000 -140.0000 77° East 549 632 37,000  Level Oakland Oceanic (ODAPS)
09:29AM 47.0000 -140.0000 77° East 564 649 37,000  Level FlightAware Transoceanic
09:30AM 47.0351 -139.7758 77° East 564 649 37,000  Level FlightAware Transoceanic
09:30AM 47.0500 -139.7333 77° East 547 629 37,000  Level Oakland Oceanic (ODAPS)
09:31AM 47.0698 -139.5513 77° East 564 649 37,000  Level FlightAware Transoceanic
09:32AM 47.1041 -139.3264 77° East 564 649 37,000  Level FlightAware Transoceanic
09:33AM 47.1379 -139.1013 78° East 564 649 37,000  Level FlightAware Transoceanic
09:34AM 47.1712 -138.8760 78° East 564 649 37,000  Level FlightAware Transoceanic
09:35AM 47.1990 -138.6859 78° East 549 632 37,000  Level FlightAware Transoceanic
09:36AM 47.2435 -138.4250 78° East 547 629 37,000  Level FlightAware Transoceanic
09:37AM 47.2743 -138.2061 78° East 547 629 37,000  Level FlightAware Transoceanic
09:38AM 47.3046 -137.9868 79° East 547 629 37,000  Level FlightAware Transoceanic
09:39AM 47.3346 -137.7674 79° East 547 629 37,000  Level FlightAware Transoceanic
09:40AM 47.3641 -137.5477 79° East 547 629 37,000  Level FlightAware Transoceanic
09:41AM 47.3932 -137.3277 79° East 547 629 37,000  Level FlightAware Transoceanic
09:42AM 47.4219 -137.1075 79° East 547 629 37,000  Level FlightAware Transoceanic
09:43AM 47.4502 -136.8871 79° East 547 629 37,000  Level FlightAware Transoceanic
09:44AM 47.4781 -136.6664 80° East 547 629 37,000  Level FlightAware Transoceanic
09:45AM 47.5055 -136.4455 80° East 547 629 37,000  Level FlightAware Transoceanic
09:46AM 47.5325 -136.2243 80° East 547 629 37,000  Level FlightAware Transoceanic
09:47AM 47.5591 -136.0030 80° East 547 629 37,000  Level FlightAware Transoceanic
09:48AM 47.5852 -135.7814 80° East 547 629 37,000  Level FlightAware Transoceanic
09:49AM 47.6109 -135.5596 80° East 547 629 37,000  Level FlightAware Transoceanic
09:50AM 47.6362 -135.3376 80° East 547 629 37,000  Level FlightAware Transoceanic
09:51AM 47.6611 -135.1153 81° East 547 629 37,000  Level FlightAware Transoceanic
09:52AM 47.6855 -134.8929 81° East 547 629 37,000  Level FlightAware Transoceanic
09:53AM 47.7095 -134.6702 81° East 547 629 37,000  Level FlightAware Transoceanic
09:54AM 47.7331 -134.4474 81° East 547 629 37,000  Level FlightAware Transoceanic
09:55AM 47.7562 -134.2243 81° East 547 629 37,000  Level FlightAware Transoceanic
09:56AM 47.7789 -134.0011 81° East 547 629 37,000 540 Level FlightAware Transoceanic
09:56AM 47.8000 -133.8500 82° East 538 619 38,000  Climbing Oakland Oceanic (ODAPS)
09:57AM 47.8012 -133.7776 82° East 547 629 37,000 -900 Descending FlightAware Transoceanic
09:58AM 47.8231 -133.5540 82° East 547 629 37,000  Level FlightAware Transoceanic
09:59AM 47.8445 -133.3302 82° East 547 629 37,000  Level FlightAware Transoceanic
10:00AM 47.8654 -133.1062 82° East 547 629 37,000  Level FlightAware Transoceanic
10:01AM 47.8860 -132.8820 82° East 547 629 37,000  Level FlightAware Transoceanic
10:02AM 47.9061 -132.6576 82° East 547 629 37,000 480 Level FlightAware Transoceanic
10:03AM 47.9256 -132.4621 83° East 538 619 38,000 540 Climbing FlightAware Transoceanic
10:03AM 47.9167 -132.3167 75° East 590 679 38,000  Level Vancouver Center
10:04AM 47.9449 -132.2302 83° East 538 619 38,000  Level FlightAware Transoceanic
10:04AM 47.9333 -132.0833 84° East 540 621 38,000  Level Vancouver Center
10:05AM 47.9637 -131.9981 83° East 538 619 38,000  Level FlightAware Transoceanic
10:05AM 47.9667 -131.8833 76° East 540 621 38,000  Level Vancouver Center
10:06AM 47.9821 -131.7658 83° East 538 619 38,000  Level FlightAware Transoceanic
10:06AM 47.9833 -131.6333 84° East 540 621 38,000  Level Vancouver Center
10:07AM 48.0000 -131.5333 75° East 538 619 38,000  Level FlightAware Transoceanic
10:07AM 48.0167 -131.4333 76° East 540 621 38,000  Level Vancouver Center
10:08AM 48.0400 -131.3120 75° East 538 619 38,000  Level FlightAware Transoceanic
10:08AM 48.0500 -131.2000 78° East 560 644 38,000  Level Vancouver Center
10:09AM 48.0795 -131.0902 75° East 538 619 38,000  Level FlightAware Transoceanic
10:10AM 48.0734 -130.9573 82° East  Level FlightAware Approximate
10:10AM 48.1167 -130.7833 82° East 530 610 38,000  Level Vancouver Center
10:11AM 48.1500 -130.5833 76° East 530 610 38,000  Level Vancouver Center
10:12AM 48.1833 -130.3667 77° East 530 610 38,000  Level Vancouver Center
10:13AM 48.2167 -130.1333 78° East 530 610 38,000  Level Vancouver Center
10:14AM 48.2167 -129.9333 90° East 530 610 38,000 -360 Level Vancouver Center
10:15AM 48.2333 -129.6833 84° East 530 610 37,300 -540 Descending Vancouver Center
10:16AM 48.2500 -129.4833 83° East 530 610 37,000 -180 Descending Vancouver Center
10:17AM 48.2500 -129.2667 90° East 530 610 37,000  Level Vancouver Center
10:18AM 48.2667 -129.0333 84° East 530 610 37,000  Level Vancouver Center
10:24AM 48.3350 -127.7890 84° East 528 608 37,000  Level FlightAware
10:25AM 48.3350 -127.5880 90° East 528 608 37,000  Level FlightAware
10:26AM 48.3340 -127.4090 90° East 527 606 37,000  Level FlightAware
10:26AM 48.3340 -127.2740 90° East 527 606 37,000  Level FlightAware
10:27AM 48.3340 -127.1280 90° East 527 606 37,000  Level FlightAware
10:28AM 48.3340 -126.9570 90° East 527 606 37,000  Level FlightAware
10:29AM 48.3330 -126.7640 90° East 526 605 37,000  Level FlightAware
10:29AM 48.3320 -126.5970 90° East 525 604 37,000  Level FlightAware
10:30AM 48.3310 -126.5090 91° East 525 604 37,000  Level FlightAware
10:31AM 48.3290 -126.3340 91° East 526 605 37,000  Level FlightAware
10:31AM 48.3280 -126.1890 91° East 526 605 37,000  Level FlightAware
10:32AM 48.3260 -126.0360 91° East 524 603 37,000  Level FlightAware
10:33AM 48.3240 -125.8800 91° East 523 602 37,000  Level FlightAware
10:33AM 48.3220 -125.7350 91° East 522 601 37,000  Level FlightAware
10:34AM 48.3190 -125.5610 91° East 522 601 37,000  Level FlightAware
10:35AM 48.3170 -125.4170 91° East 522 601 37,000  Level FlightAware
10:36AM 48.3140 -125.2680 92° East 522 601 37,000 -180 Level FlightAware
10:36AM 48.3110 -125.1210 92° East 513 590 36,800 -660 Descending FlightAware
10:37AM 48.3080 -124.9740 92° East 500 575 36,100 -1,260 Descending FlightAware
10:38AM 48.3050 -124.8290 92° East 496 571 35,100 -1,260 Descending FlightAware
10:38AM 48.3010 -124.6760 92° East 488 562 34,300 -1,080 Descending FlightAware
10:39AM 48.2880 -124.5520 99° East 483 556 33,700 -1,080 Descending FlightAware
10:39AM 48.2750 -124.4480 101° East 477 549 33,100 -1,200 Descending FlightAware
10:40AM 48.2510 -124.2680 101° East 471 542 32,000 -1,140 Descending FlightAware
10:41AM 48.2340 -124.1540 103° East 465 535 31,400 -1,080 Descending FlightAware
10:42AM 48.2140 -124.0130 102° East 458 527 30,600 -1,080 Descending FlightAware
10:42AM 48.1940 -123.8780 102° East 453 521 29,800 -1,140 Descending FlightAware
10:43AM 48.1750 -123.7530 103° East 445 512 29,000 -1,500 Descending FlightAware
10:44AM 48.1560 -123.6250 102° East 436 502 27,700 -1,920 Descending FlightAware
10:45AM 48.1390 -123.5090 102° East 428 493 26,400 -1,920 Descending FlightAware
10:46AM 48.1150 -123.3460 102° East 418 481 24,600 -1,920 Descending FlightAware
10:46AM 48.0990 -123.2430 103° East 411 473 23,500 -1,860 Descending FlightAware
10:47AM 48.0800 -123.1140 102° East 401 461 22,000 -1,860 Descending FlightAware
10:48AM 48.0620 -123.0020 103° East 394 453 20,700 -1,800 Descending FlightAware
10:48AM 48.0450 -122.8940 103° East 384 442 19,500 -1,920 Descending FlightAware
10:49AM 48.0300 -122.8550 120° Southeast 378 435 18,900 -1,860 Descending FlightAware
10:49AM 47.9800 -122.7960 142° Southeast 367 422 17,900 -1,800 Descending FlightAware
10:50AM 47.9160 -122.7390 149° Southeast 366 421 16,500 -1,860 Descending FlightAware
10:51AM 47.8600 -122.6890 149° Southeast 362 417 15,300 -1,740 Descending FlightAware
10:51AM 47.7960 -122.6310 149° Southeast 348 400 14,100 -1,440 Descending FlightAware
10:52AM 47.7470 -122.5870 149° Southeast 343 395 13,300 -1,440 Descending FlightAware
10:53AM 47.6860 -122.5320 149° Southeast 328 377 12,200 -720 Descending FlightAware
10:54AM 47.6020 -122.4550 148° Southeast 316 364 11,900 -1,440 Descending FlightAware
10:54AM 47.5720 -122.4570 183° South 314 361 10,000 -2,760 Descending FlightAware
10:55AM 47.5450 -122.4320 148° Southeast 314 361 10,000  Level FlightAware
10:55AM 47.5070 -122.3960 147° Southeast 314 361 10,000  Level FlightAware
10:56AM 47.4800 -122.3720 149° Southeast 314 361 10,000  Level FlightAware
10:56AM 47.4510 -122.3450 148° Southeast 314 361 10,000 -4,200 Level FlightAware
10:57AM 47.4020 -122.4620 238° Southwest 254 292 6,300 -4,200 Descending FlightAware
10:57AM 47.3740 -122.4640 183° South 254 292 6,300 -1,740 Level FlightAware
10:58AM 47.3175 -122.4639 183° South 246 283 4,200 -1,800 Descending Seattle Center
10:59AM 47.2828 -122.4022 130° Southeast 222 255 3,200 -1,020 Descending Seattle Center